createdAt,value
2023-01-12T00:01:40.323Z,5.55
2023-01-12T00:04:08.405Z,4.32
2023-01-12T00:06:36.502Z,4.30
2023-01-12T00:09:06.425Z,4.85
2023-01-12T00:11:34.480Z,3.97
2023-01-12T00:14:03.797Z,4.85
2023-01-12T00:16:38.553Z,5.00
2023-01-12T00:19:10.769Z,4.53
2023-01-12T00:21:52.511Z,4.18
2023-01-12T00:24:20.623Z,4.45
2023-01-12T00:26:48.921Z,5.55
2023-01-12T00:29:18.576Z,4.57
2023-01-12T00:31:46.708Z,4.50
2023-01-12T00:34:16.196Z,4.60
2023-01-12T00:36:44.242Z,4.55
2023-01-12T00:39:12.003Z,4.53
2023-01-12T00:41:57.417Z,3.88
2023-01-12T00:44:44.401Z,4.00
2023-01-12T00:47:12.680Z,4.20
2023-01-12T00:49:41.736Z,4.32
2023-01-12T00:52:13.320Z,3.92
2023-01-12T00:54:44.293Z,4.72
2023-01-12T00:57:13.404Z,3.85
2023-01-12T00:59:44.625Z,3.67
2023-01-12T01:02:13.393Z,3.35
2023-01-12T01:04:41.417Z,3.05
2023-01-12T01:07:09.151Z,3.40
2023-01-12T01:09:37.279Z,2.80
2023-01-12T01:12:05.152Z,3.13
2023-01-12T01:14:33.000Z,3.10
2023-01-12T01:17:02.077Z,3.28
2023-01-12T01:19:29.816Z,3.15
2023-01-12T01:21:57.624Z,3.03
2023-01-12T01:24:26.146Z,2.95
2023-01-12T01:26:54.015Z,3.90
2023-01-12T01:29:21.872Z,2.78
2023-01-12T01:31:49.931Z,3.03
2023-01-12T01:34:19.592Z,2.67
2023-01-12T01:36:47.352Z,3.22
2023-01-12T01:39:15.110Z,3.00
2023-01-12T01:41:43.718Z,2.80
2023-01-12T01:44:26.411Z,2.83
2023-01-12T01:46:55.697Z,3.00
2023-01-12T01:49:31.715Z,2.63
2023-01-12T01:52:04.436Z,2.10
2023-01-12T01:54:34.664Z,2.15
2023-01-12T01:57:02.534Z,2.22
2023-01-12T01:59:33.552Z,2.13
2023-01-12T02:02:02.730Z,2.17
2023-01-12T02:04:32.281Z,2.00
2023-01-12T02:07:00.994Z,1.85
2023-01-12T02:09:30.727Z,2.10
2023-01-12T02:12:16.080Z,1.85
2023-01-12T02:15:01.999Z,1.75
2023-01-12T02:17:39.731Z,2.33
2023-01-12T02:20:20.096Z,1.83
2023-01-12T02:22:56.674Z,1.85
2023-01-12T02:25:35.844Z,1.52
2023-01-12T02:28:28.441Z,1.45
2023-01-12T02:31:17.574Z,1.98
2023-01-12T02:33:52.114Z,1.55
2023-01-12T02:36:25.039Z,1.67
2023-01-12T02:38:54.298Z,1.38
2023-01-12T02:41:45.200Z,1.40
2023-01-12T02:44:16.786Z,1.60
2023-01-12T02:46:47.244Z,1.73
2023-01-12T02:49:16.990Z,1.95
2023-01-12T02:51:47.304Z,1.27
2023-01-12T02:54:16.843Z,1.73
2023-01-12T02:56:45.555Z,1.67
2023-01-12T02:59:15.296Z,1.48
2023-01-12T03:01:43.997Z,1.40
2023-01-12T03:04:15.699Z,1.90
2023-01-12T03:06:45.538Z,1.70
2023-01-12T03:09:13.645Z,1.40
2023-01-12T03:11:43.760Z,1.40
2023-01-12T03:14:13.255Z,1.42
2023-01-12T03:16:41.419Z,1.40
2023-01-12T03:19:10.801Z,1.23
2023-01-12T03:21:41.002Z,1.13
2023-01-12T03:24:10.002Z,1.52
2023-01-12T03:26:40.274Z,1.42
2023-01-12T03:29:10.874Z,1.05
2023-01-12T03:31:39.077Z,1.42
2023-01-12T03:34:06.976Z,1.40
2023-01-12T03:36:40.208Z,1.58
2023-01-12T03:39:13.646Z,1.42
2023-01-12T03:41:46.913Z,1.88
2023-01-12T03:44:19.735Z,1.50
2023-01-12T03:46:52.824Z,1.63
2023-01-12T03:49:23.711Z,1.50
2023-01-12T03:51:51.931Z,1.20
2023-01-12T03:54:22.533Z,1.13
2023-01-12T03:56:51.080Z,1.25
2023-01-12T03:59:18.931Z,1.33
2023-01-12T04:01:48.900Z,1.02
2023-01-12T04:04:16.800Z,1.00
2023-01-12T04:06:44.597Z,1.40
2023-01-12T04:09:12.341Z,1.33
2023-01-12T04:11:59.318Z,1.20
2023-01-12T04:14:27.080Z,1.20
2023-01-12T04:16:54.929Z,1.42
2023-01-12T04:19:22.674Z,1.23
2023-01-12T04:22:08.055Z,1.17
2023-01-12T04:24:35.826Z,1.20
2023-01-12T04:27:05.024Z,1.35
2023-01-12T04:29:32.877Z,1.70
2023-01-12T04:32:00.794Z,1.50
2023-01-12T04:34:28.676Z,1.70
2023-01-12T04:36:56.440Z,1.38
2023-01-12T04:39:24.310Z,1.40
2023-01-12T04:41:52.057Z,1.38
2023-01-12T04:44:21.237Z,2.10
2023-01-12T04:46:49.122Z,1.40
2023-01-12T04:49:17.049Z,1.00
2023-01-12T04:51:45.311Z,1.52
2023-01-12T04:54:13.489Z,1.38
2023-01-12T04:56:41.293Z,1.33
2023-01-12T04:59:10.667Z,1.50
2023-01-12T05:01:40.047Z,1.02
2023-01-12T05:04:08.290Z,1.15
2023-01-12T05:06:36.139Z,1.27
2023-01-12T05:09:21.341Z,1.70
2023-01-12T05:11:49.147Z,1.30
2023-01-12T05:14:16.923Z,1.10
2023-01-12T05:16:46.108Z,1.30
2023-01-12T05:19:14.113Z,1.63
2023-01-12T05:21:42.235Z,1.50
2023-01-12T05:24:10.110Z,1.08
2023-01-12T05:26:38.953Z,1.73
2023-01-12T05:29:06.722Z,1.10
2023-01-12T05:31:34.785Z,1.20
2023-01-12T05:34:03.881Z,1.83
2023-01-12T05:36:31.647Z,1.85
2023-01-12T05:38:59.738Z,1.60
2023-01-12T05:41:27.544Z,0.98
2023-01-12T05:43:55.024Z,1.45
2023-01-12T05:46:24.071Z,1.40
2023-01-12T05:48:52.498Z,1.40
2023-01-12T05:51:22.023Z,0.93
2023-01-12T05:53:49.947Z,1.10
2023-01-12T05:56:19.034Z,1.40
2023-01-12T05:58:49.829Z,1.13
2023-01-12T06:01:18.192Z,1.10
2023-01-12T06:03:49.767Z,1.20
2023-01-12T06:06:17.553Z,1.20
2023-01-12T06:08:46.718Z,1.45
2023-01-12T06:11:28.812Z,1.30
2023-01-12T06:13:59.411Z,1.30
2023-01-12T06:16:28.210Z,1.30
2023-01-12T06:18:55.925Z,1.15
2023-01-12T06:21:24.071Z,1.38
2023-01-12T06:23:53.129Z,1.38
2023-01-12T06:26:20.864Z,1.80
2023-01-12T06:28:48.627Z,1.60
2023-01-12T06:31:16.733Z,4.97
2023-01-12T06:33:44.661Z,1.73
2023-01-12T06:36:13.209Z,1.50
2023-01-12T06:38:41.842Z,1.75
2023-01-12T06:41:32.351Z,1.50
2023-01-12T06:44:00.654Z,2.40
2023-01-12T06:46:28.981Z,1.50
2023-01-12T06:48:57.790Z,1.75
2023-01-12T06:51:25.571Z,1.67
2023-01-12T06:53:53.462Z,1.52
2023-01-12T06:56:22.852Z,1.77
2023-01-12T06:58:50.591Z,1.65
2023-01-12T07:01:18.625Z,1.95
2023-01-12T07:03:46.720Z,2.17
2023-01-12T07:06:15.101Z,1.77
2023-01-12T07:08:43.426Z,1.90
2023-01-12T07:11:12.668Z,2.00
2023-01-12T07:13:41.951Z,1.95
2023-01-12T07:16:09.853Z,1.52
2023-01-12T07:18:37.696Z,2.63
2023-01-12T07:21:05.885Z,1.42
2023-01-12T07:23:33.670Z,1.30
2023-01-12T07:26:01.607Z,1.80
2023-01-12T07:28:31.282Z,1.20
2023-01-12T07:31:02.553Z,1.33
2023-01-12T07:33:30.395Z,1.00
2023-01-12T07:35:58.976Z,1.35
2023-01-12T07:38:27.096Z,1.20
2023-01-12T07:40:54.839Z,1.08
2023-01-12T07:43:23.403Z,1.30
2023-01-12T07:45:51.494Z,1.40
2023-01-12T07:48:21.283Z,1.20
2023-01-12T07:50:49.065Z,1.30
2023-01-12T07:53:16.781Z,1.20
2023-01-12T07:55:44.691Z,1.20
2023-01-12T07:58:13.306Z,1.20
2023-01-12T08:00:41.085Z,1.27
2023-01-12T08:03:09.988Z,1.35
2023-01-12T08:05:39.800Z,1.23
2023-01-12T08:08:09.585Z,1.30
2023-01-12T08:10:37.484Z,1.38
2023-01-12T08:13:05.241Z,1.25
2023-01-12T08:15:36.635Z,1.02
2023-01-12T08:18:09.571Z,1.30
2023-01-12T08:20:37.672Z,1.77
2023-01-12T08:23:11.109Z,1.27
2023-01-12T08:25:44.625Z,1.20
2023-01-12T08:28:14.265Z,0.95
2023-01-12T08:30:43.593Z,1.50
2023-01-12T08:33:11.698Z,1.40
2023-01-12T08:35:41.610Z,1.17
2023-01-12T08:38:10.896Z,1.20
2023-01-12T08:40:56.481Z,1.20
2023-01-12T08:43:38.182Z,3.25
2023-01-12T08:46:10.612Z,0.80
2023-01-12T08:48:40.638Z,1.33
2023-01-12T08:51:10.623Z,0.90
2023-01-12T08:53:39.725Z,1.13
2023-01-12T08:56:09.291Z,1.15
2023-01-12T08:58:37.053Z,1.30
2023-01-12T09:01:09.189Z,1.42
2023-01-12T09:03:38.795Z,1.00
2023-01-12T09:06:11.497Z,1.25
2023-01-12T09:08:40.601Z,1.02
2023-01-12T09:11:08.720Z,1.40
2023-01-12T09:13:37.486Z,1.30
2023-01-12T09:16:12.845Z,1.30
2023-01-12T09:18:41.085Z,0.93
2023-01-12T09:21:09.807Z,1.00
2023-01-12T09:23:38.021Z,0.80
2023-01-12T09:26:08.175Z,1.23
2023-01-12T09:28:36.206Z,0.98
2023-01-12T09:31:07.665Z,1.55
2023-01-12T09:33:36.649Z,1.20
2023-01-12T09:36:05.513Z,1.45
2023-01-12T09:38:36.438Z,1.40
2023-01-12T09:41:10.697Z,1.33
2023-01-12T09:43:58.072Z,0.90
2023-01-12T09:46:46.197Z,1.02
2023-01-12T09:49:14.484Z,1.00
2023-01-12T09:51:45.756Z,0.95
2023-01-12T09:54:13.591Z,0.77
2023-01-12T09:56:52.750Z,1.05
2023-01-12T09:59:28.760Z,1.05
2023-01-12T10:01:58.845Z,1.55
2023-01-12T10:04:27.389Z,1.35
2023-01-12T10:06:55.526Z,5.60
2023-01-12T10:09:23.783Z,2.90
2023-01-12T10:11:55.947Z,1.38
2023-01-12T10:14:40.624Z,1.20
2023-01-12T10:17:15.761Z,1.50
2023-01-12T10:19:50.869Z,1.48
2023-01-12T10:22:36.973Z,1.13
2023-01-12T10:25:17.988Z,0.85
2023-01-12T10:27:46.746Z,1.05
2023-01-12T10:30:17.451Z,1.23
2023-01-12T10:32:45.529Z,1.08
2023-01-12T10:35:17.164Z,1.40
2023-01-12T10:37:48.389Z,1.10
2023-01-12T10:40:29.761Z,1.20
2023-01-12T10:43:32.001Z,0.95
2023-01-12T10:46:11.416Z,1.13
2023-01-12T10:48:40.234Z,1.15
2023-01-12T10:51:08.949Z,0.90
2023-01-12T10:53:40.774Z,1.20
2023-01-12T10:56:19.602Z,0.93
2023-01-12T10:58:52.381Z,0.85
2023-01-12T11:01:21.615Z,1.00
2023-01-12T11:03:51.545Z,0.85
2023-01-12T11:06:23.810Z,1.30
2023-01-12T11:08:51.729Z,1.08
2023-01-12T11:11:24.545Z,1.25
2023-01-12T11:13:53.796Z,0.95
2023-01-12T11:16:25.813Z,1.02
2023-01-12T11:19:08.254Z,1.10
2023-01-12T11:21:39.354Z,1.10
2023-01-12T11:24:11.455Z,1.02
2023-01-12T11:26:44.268Z,1.67
2023-01-12T11:29:22.074Z,1.40
2023-01-12T11:31:53.124Z,1.27
2023-01-12T11:34:25.804Z,1.30
2023-01-12T11:36:57.787Z,0.82
2023-01-12T11:39:26.965Z,1.33
2023-01-12T11:42:15.868Z,1.70
2023-01-12T11:44:45.725Z,1.42
2023-01-12T11:47:16.810Z,2.10
2023-01-12T11:49:48.580Z,1.10
2023-01-12T11:52:17.203Z,1.25
2023-01-12T11:54:45.082Z,1.65
2023-01-12T11:57:25.818Z,1.95
2023-01-12T12:00:01.317Z,3.55
2023-01-12T12:05:15.100Z,2.05
2023-01-12T12:07:49.816Z,2.42
2023-01-12T12:10:23.880Z,2.00
2023-01-12T12:13:15.933Z,1.20
2023-01-12T12:15:46.681Z,1.40
2023-01-12T12:18:21.799Z,1.33
2023-01-12T12:20:57.192Z,1.95
2023-01-12T12:23:30.695Z,0.80
2023-01-12T12:26:08.543Z,2.30
2023-01-12T12:28:53.951Z,1.65
2023-01-12T12:31:41.859Z,1.05
2023-01-12T12:34:17.348Z,1.40
2023-01-12T12:36:51.333Z,1.15
2023-01-12T12:39:43.605Z,1.33
2023-01-12T12:42:39.649Z,1.30
2023-01-12T12:45:21.711Z,1.33
2023-01-12T12:48:07.408Z,2.80
2023-01-12T12:50:41.441Z,1.15
2023-01-12T12:53:20.213Z,1.70
2023-01-12T12:55:50.727Z,3.40
2023-01-12T12:58:29.248Z,2.72
2023-01-12T13:01:18.049Z,1.92
2023-01-12T13:03:46.728Z,1.75
2023-01-12T13:06:20.114Z,1.08
2023-01-12T13:08:50.826Z,1.55
2023-01-12T13:11:19.046Z,0.98
2023-01-12T13:13:59.167Z,1.10
2023-01-12T13:16:46.603Z,1.00
2023-01-12T13:19:17.926Z,1.00
2023-01-12T13:21:56.396Z,1.27
2023-01-12T13:24:29.903Z,1.30
2023-01-12T13:27:01.330Z,1.80
2023-01-12T13:29:40.550Z,2.13
2023-01-12T13:32:27.933Z,2.50
2023-01-12T13:34:56.252Z,1.70
2023-01-12T13:37:28.165Z,1.10
2023-01-12T13:40:05.202Z,1.05
2023-01-12T13:42:52.955Z,0.80
2023-01-12T13:45:22.073Z,1.10
2023-01-12T13:47:50.981Z,0.95
2023-01-12T13:50:20.377Z,1.17
2023-01-12T13:52:57.017Z,1.05
2023-01-12T13:55:28.035Z,1.00
2023-01-12T13:58:00.124Z,1.13
2023-01-12T14:00:28.965Z,1.38
2023-01-12T14:02:57.943Z,1.00
2023-01-12T14:05:32.147Z,1.10
2023-01-12T14:08:07.068Z,1.42
2023-01-12T14:10:39.386Z,1.30
2023-01-12T14:13:21.659Z,1.17
2023-01-12T14:16:07.405Z,1.00
2023-01-12T14:18:42.623Z,1.42
2023-01-12T14:21:20.704Z,0.93
2023-01-12T14:23:48.519Z,1.10
2023-01-12T14:26:23.119Z,1.10
2023-01-12T14:28:51.722Z,1.13
2023-01-12T14:31:25.064Z,1.10
2023-01-12T14:33:54.508Z,1.27
2023-01-12T14:36:24.063Z,1.20
2023-01-12T14:38:52.294Z,1.50
2023-01-12T14:41:40.246Z,1.10
2023-01-12T14:44:26.287Z,1.38
2023-01-12T14:46:54.789Z,1.00
2023-01-12T14:49:26.077Z,0.90
2023-01-12T14:51:54.735Z,1.90
2023-01-12T14:54:26.342Z,1.55
2023-01-12T14:56:59.450Z,1.92
2023-01-12T14:59:29.937Z,1.58
2023-01-12T15:02:16.498Z,1.73
2023-01-12T15:04:51.718Z,1.58
2023-01-12T15:07:20.395Z,2.42
2023-01-12T15:09:53.021Z,1.20
2023-01-12T15:12:36.081Z,1.27
2023-01-12T15:15:18.821Z,1.35
2023-01-12T15:18:04.560Z,1.10
2023-01-12T15:20:53.140Z,1.40
2023-01-12T15:23:40.496Z,1.30
2023-01-12T15:26:08.498Z,1.05
2023-01-12T15:28:36.497Z,1.35
2023-01-12T15:31:06.344Z,1.17
2023-01-12T15:33:34.157Z,1.08
2023-01-12T15:36:01.996Z,0.80
2023-01-12T15:38:29.806Z,1.10
2023-01-12T15:40:57.542Z,0.93
2023-01-12T15:43:25.427Z,1.20
2023-01-12T15:45:54.665Z,1.30
2023-01-12T15:48:23.776Z,1.27
2023-01-12T15:50:51.706Z,0.88
2023-01-12T15:53:22.296Z,1.92
2023-01-12T15:55:50.034Z,1.10
2023-01-12T15:58:19.757Z,1.10
2023-01-12T16:00:49.176Z,1.20
2023-01-12T16:03:48.960Z,1.38
2023-01-12T16:06:07.568Z,1.45
2023-01-12T16:08:35.347Z,1.02
2023-01-12T16:11:13.349Z,1.20
2023-01-12T16:13:41.560Z,1.40
2023-01-12T16:16:14.509Z,1.17
2023-01-12T16:18:42.477Z,1.25
2023-01-12T16:21:15.389Z,1.30
2023-01-12T16:23:43.214Z,1.25
2023-01-12T16:26:11.317Z,1.17
2023-01-12T16:28:39.336Z,2.72
2023-01-12T16:31:07.834Z,2.17
2023-01-12T16:33:36.833Z,3.75
2023-01-12T16:36:04.957Z,4.15
2023-01-12T16:38:34.180Z,7.63
2023-01-12T16:41:07.957Z,18.83
2023-01-12T16:43:37.338Z,4.20
2023-01-12T16:46:05.720Z,1.35
2023-01-12T16:48:34.404Z,1.40
2023-01-12T16:51:02.276Z,1.00
2023-01-12T16:53:30.748Z,1.02
2023-01-12T16:56:00.545Z,1.13
2023-01-12T16:58:28.382Z,0.95
2023-01-12T17:00:58.473Z,1.27
2023-01-12T17:03:26.324Z,1.30
2023-01-12T17:05:54.185Z,1.15
2023-01-12T17:08:21.972Z,1.73
2023-01-12T17:10:49.813Z,1.38
2023-01-12T17:13:19.059Z,6.68
2023-01-12T17:15:46.785Z,5.03
2023-01-12T17:18:14.563Z,1.65
2023-01-12T17:20:42.516Z,1.05
2023-01-12T17:23:10.709Z,1.20
2023-01-12T17:25:38.534Z,1.50
2023-01-12T17:28:07.538Z,1.80
2023-01-12T17:30:36.751Z,1.67
2023-01-12T17:33:04.743Z,1.95
2023-01-12T17:35:35.365Z,1.85
2023-01-12T17:38:03.167Z,1.70
2023-01-12T17:40:31.778Z,1.63
2023-01-12T17:43:07.848Z,1.13
2023-01-12T17:45:42.554Z,1.80
2023-01-12T17:48:11.863Z,1.10
2023-01-12T17:50:40.204Z,1.50
2023-01-12T17:53:09.535Z,1.90
2023-01-12T17:55:48.546Z,1.45
2023-01-12T17:58:18.556Z,1.33
2023-01-12T18:00:47.802Z,2.00
2023-01-12T18:03:15.900Z,1.75
2023-01-12T18:05:47.077Z,1.30
2023-01-12T18:08:14.989Z,1.38
2023-01-12T18:10:42.753Z,1.42
2023-01-12T18:13:12.822Z,1.33
2023-01-12T18:15:41.175Z,1.40
2023-01-12T18:18:10.297Z,1.38
2023-01-12T18:20:38.293Z,1.20
2023-01-12T18:23:06.040Z,1.55
2023-01-12T18:25:36.677Z,1.80
2023-01-12T18:28:05.137Z,1.48
2023-01-12T18:30:33.089Z,1.48
2023-01-12T18:33:01.131Z,1.35
2023-01-12T18:35:30.360Z,1.42
2023-01-12T18:37:58.275Z,1.52
2023-01-12T18:40:25.964Z,1.60
2023-01-12T18:42:54.574Z,1.58
2023-01-12T18:45:24.081Z,1.02
2023-01-12T18:48:09.732Z,1.95
2023-01-12T18:50:56.749Z,1.45
2023-01-12T18:53:25.537Z,1.77
2023-01-12T18:55:57.067Z,1.90
2023-01-12T18:58:27.602Z,1.58
2023-01-12T19:00:55.650Z,1.60
2023-01-12T19:03:23.997Z,1.45
2023-01-12T19:06:00.507Z,1.30
2023-01-12T19:08:46.667Z,1.60
2023-01-12T19:11:17.089Z,2.20
2023-01-12T19:14:02.979Z,1.85
2023-01-12T19:16:44.893Z,1.88
2023-01-12T19:19:12.725Z,2.35
2023-01-12T19:21:59.509Z,1.80
2023-01-12T19:24:45.060Z,2.10
2023-01-12T19:27:30.842Z,1.83
2023-01-12T19:29:58.951Z,1.63
2023-01-12T19:32:27.021Z,1.80
2023-01-12T19:35:02.378Z,1.42
2023-01-12T19:37:35.728Z,1.05
2023-01-12T19:40:13.423Z,2.00
2023-01-12T19:42:58.620Z,2.20
2023-01-12T19:45:26.464Z,2.00
2023-01-12T19:47:54.729Z,1.60
2023-01-12T19:50:22.833Z,1.90
2023-01-12T19:52:51.953Z,1.50
2023-01-12T19:55:21.612Z,1.40
2023-01-12T19:57:49.279Z,1.42
2023-01-12T20:00:17.582Z,1.55
2023-01-12T20:02:47.454Z,1.25
2023-01-12T20:05:22.555Z,1.48
2023-01-12T20:07:52.884Z,1.27
2023-01-12T20:10:21.158Z,1.35
2023-01-12T20:12:51.255Z,1.10
2023-01-12T20:15:20.629Z,1.40
2023-01-12T20:17:50.362Z,1.30
2023-01-12T20:20:18.442Z,1.40
2023-01-12T20:22:46.856Z,1.80
2023-01-12T20:25:15.978Z,1.88
2023-01-12T20:27:45.779Z,1.02
2023-01-12T20:30:16.446Z,1.40
2023-01-12T20:32:46.595Z,2.05
2023-01-12T20:35:15.329Z,2.00
2023-01-12T20:37:43.242Z,1.15
2023-01-12T20:40:11.638Z,1.83
2023-01-12T20:42:41.530Z,1.30
2023-01-12T20:45:13.573Z,1.10
2023-01-12T20:47:42.471Z,1.60
2023-01-12T20:50:13.788Z,1.33
2023-01-12T20:52:42.245Z,1.25
2023-01-12T20:55:10.797Z,1.23
2023-01-12T20:57:39.952Z,1.15
2023-01-12T21:00:12.515Z,1.33
2023-01-12T21:02:43.162Z,1.23
2023-01-12T21:05:11.411Z,0.70
2023-01-12T21:07:39.528Z,1.00
2023-01-12T21:10:11.987Z,0.93
2023-01-12T21:12:40.255Z,1.05
2023-01-12T21:15:13.337Z,1.30
2023-01-12T21:17:41.288Z,0.80
2023-01-12T21:20:10.324Z,1.30
2023-01-12T21:22:41.182Z,0.93
2023-01-12T21:25:09.524Z,0.90
2023-01-12T21:27:37.499Z,0.93
2023-01-12T21:30:07.533Z,0.77
2023-01-12T21:32:36.654Z,0.70
2023-01-12T21:35:04.944Z,1.20
2023-01-12T21:37:33.402Z,0.98
2023-01-12T21:40:01.226Z,1.00
2023-01-12T21:42:46.877Z,0.93
2023-01-12T21:45:15.160Z,1.00
2023-01-12T21:47:45.932Z,0.80
2023-01-12T21:50:14.158Z,0.80
2023-01-12T21:52:42.171Z,0.77
2023-01-12T21:55:11.280Z,1.42
2023-01-12T21:57:39.329Z,1.45
2023-01-12T22:00:07.876Z,0.82
2023-01-12T22:02:39.713Z,0.85
2023-01-12T22:05:09.547Z,0.70
2023-01-12T22:07:37.357Z,1.23
2023-01-12T22:12:59.446Z,1.00
2023-01-12T22:15:28.811Z,1.02
2023-01-12T22:17:57.169Z,0.90
2023-01-12T22:20:25.311Z,0.90
2023-01-12T22:22:54.002Z,0.82
2023-01-12T22:25:21.724Z,0.73
2023-01-12T22:27:49.581Z,0.75
2023-01-12T22:30:19.784Z,0.55
2023-01-12T22:32:48.184Z,0.60
2023-01-12T22:35:16.038Z,0.60
2023-01-12T22:37:45.628Z,1.15
2023-01-12T22:40:15.887Z,0.88
2023-01-12T22:43:01.563Z,0.80
2023-01-12T22:45:30.743Z,0.63
2023-01-12T22:47:58.488Z,0.70
2023-01-12T22:50:26.349Z,0.80
2023-01-12T22:52:54.749Z,0.93
2023-01-12T22:55:23.097Z,1.00
2023-01-12T22:57:51.105Z,0.93
2023-01-12T23:00:19.850Z,0.80
2023-01-12T23:03:01.632Z,0.88
2023-01-12T23:05:31.473Z,0.60
2023-01-12T23:07:59.690Z,0.80
2023-01-12T23:10:27.836Z,0.70
2023-01-12T23:13:13.505Z,0.90
2023-01-12T23:15:41.806Z,0.88
2023-01-12T23:18:11.806Z,0.60
2023-01-12T23:20:39.742Z,0.70
2023-01-12T23:23:08.030Z,0.73
2023-01-12T23:25:36.244Z,1.00
2023-01-12T23:28:04.964Z,0.45
2023-01-12T23:30:33.018Z,0.70
2023-01-12T23:33:03.996Z,0.65
2023-01-12T23:35:36.521Z,0.60
2023-01-12T23:38:04.954Z,0.75
2023-01-12T23:40:32.831Z,0.70
2023-01-12T23:43:00.718Z,0.70
2023-01-12T23:45:28.878Z,0.63
2023-01-12T23:47:57.075Z,0.60
2023-01-12T23:50:25.149Z,0.70
2023-01-12T23:52:54.380Z,0.82
2023-01-12T23:55:22.233Z,0.88
2023-01-12T23:57:50.135Z,0.60
